sensor_id;sensor_type;location;lat;lon;timestamp;P1;durP1;ratioP1;P2;durP2;ratioP2
15295;SDS011;7749;49.964;7.890;2023-12-20T00:00:37;3.37;;;2.60;;
15295;SDS011;7749;49.964;7.890;2023-12-20T00:03:05;2.70;;;2.50;;
15295;SDS011;7749;49.964;7.890;2023-12-20T00:05:32;2.90;;;2.70;;
15295;SDS011;7749;49.964;7.890;2023-12-20T00:08:00;2.40;;;2.20;;
15295;SDS011;7749;49.964;7.890;2023-12-20T00:10:28;2.07;;;1.97;;
15295;SDS011;7749;49.964;7.890;2023-12-20T00:12:55;4.00;;;3.33;;
15295;SDS011;7749;49.964;7.890;2023-12-20T00:15:22;3.63;;;3.10;;
15295;SDS011;7749;49.964;7.890;2023-12-20T00:17:50;4.50;;;4.07;;
15295;SDS011;7749;49.964;7.890;2023-12-20T00:20:17;5.67;;;4.80;;
15295;SDS011;7749;49.964;7.890;2023-12-20T00:22:45;3.40;;;3.10;;
15295;SDS011;7749;49.964;7.890;2023-12-20T00:25:13;3.30;;;3.00;;
15295;SDS011;7749;49.964;7.890;2023-12-20T00:27:40;2.47;;;2.27;;
15295;SDS011;7749;49.964;7.890;2023-12-20T00:30:09;3.50;;;2.60;;
15295;SDS011;7749;49.964;7.890;2023-12-20T00:32:37;2.60;;;2.40;;
15295;SDS011;7749;49.964;7.890;2023-12-20T00:35:05;2.03;;;1.83;;
15295;SDS011;7749;49.964;7.890;2023-12-20T00:37:33;1.70;;;1.60;;
15295;SDS011;7749;49.964;7.890;2023-12-20T00:40:00;2.20;;;2.10;;
15295;SDS011;7749;49.964;7.890;2023-12-20T00:42:28;2.03;;;1.93;;
15295;SDS011;7749;49.964;7.890;2023-12-20T00:44:55;2.33;;;2.10;;
15295;SDS011;7749;49.964;7.890;2023-12-20T00:47:23;1.97;;;1.77;;
15295;SDS011;7749;49.964;7.890;2023-12-20T00:49:50;1.97;;;1.30;;
15295;SDS011;7749;49.964;7.890;2023-12-20T00:52:18;1.47;;;1.43;;
15295;SDS011;7749;49.964;7.890;2023-12-20T00:54:46;2.07;;;1.70;;
15295;SDS011;7749;49.964;7.890;2023-12-20T00:57:13;1.80;;;1.70;;
15295;SDS011;7749;49.964;7.890;2023-12-20T00:59:41;2.00;;;1.90;;
15295;SDS011;7749;49.964;7.890;2023-12-20T01:02:08;1.43;;;1.30;;
15295;SDS011;7749;49.964;7.890;2023-12-20T01:04:36;1.60;;;1.50;;
15295;SDS011;7749;49.964;7.890;2023-12-20T01:07:04;2.20;;;1.60;;
15295;SDS011;7749;49.964;7.890;2023-12-20T01:09:31;2.30;;;1.77;;
15295;SDS011;7749;49.964;7.890;2023-12-20T01:11:59;2.17;;;1.70;;
15295;SDS011;7749;49.964;7.890;2023-12-20T01:14:26;1.60;;;1.50;;
15295;SDS011;7749;49.964;7.890;2023-12-20T01:16:54;1.83;;;1.57;;
15295;SDS011;7749;49.964;7.890;2023-12-20T01:19:21;1.57;;;1.40;;
15295;SDS011;7749;49.964;7.890;2023-12-20T01:21:49;1.53;;;1.40;;
15295;SDS011;7749;49.964;7.890;2023-12-20T01:24:17;1.40;;;1.30;;
15295;SDS011;7749;49.964;7.890;2023-12-20T01:26:44;2.40;;;1.63;;
15295;SDS011;7749;49.964;7.890;2023-12-20T01:29:11;1.67;;;1.57;;
15295;SDS011;7749;49.964;7.890;2023-12-20T01:31:41;1.63;;;1.53;;
15295;SDS011;7749;49.964;7.890;2023-12-20T01:34:08;2.00;;;1.90;;
15295;SDS011;7749;49.964;7.890;2023-12-20T01:36:36;1.43;;;1.33;;
15295;SDS011;7749;49.964;7.890;2023-12-20T01:39:03;1.50;;;1.40;;
15295;SDS011;7749;49.964;7.890;2023-12-20T01:41:38;1.40;;;1.30;;
15295;SDS011;7749;49.964;7.890;2023-12-20T01:44:06;1.43;;;1.33;;
15295;SDS011;7749;49.964;7.890;2023-12-20T01:46:33;1.07;;;1.07;;
15295;SDS011;7749;49.964;7.890;2023-12-20T01:49:01;1.33;;;1.23;;
15295;SDS011;7749;49.964;7.890;2023-12-20T01:51:29;1.00;;;1.00;;
15295;SDS011;7749;49.964;7.890;2023-12-20T01:53:57;1.17;;;1.13;;
15295;SDS011;7749;49.964;7.890;2023-12-20T01:56:25;1.10;;;1.00;;
15295;SDS011;7749;49.964;7.890;2023-12-20T01:58:54;1.03;;;1.00;;
15295;SDS011;7749;49.964;7.890;2023-12-20T02:01:23;1.00;;;1.00;;
15295;SDS011;7749;49.964;7.890;2023-12-20T02:03:52;1.37;;;1.00;;
15295;SDS011;7749;49.964;7.890;2023-12-20T02:06:19;1.10;;;1.00;;
15295;SDS011;7749;49.964;7.890;2023-12-20T02:08:50;2.53;;;1.30;;
15295;SDS011;7749;49.964;7.890;2023-12-20T02:11:17;2.10;;;1.60;;
15295;SDS011;7749;49.964;7.890;2023-12-20T02:13:45;4.17;;;2.73;;
15295;SDS011;7749;49.964;7.890;2023-12-20T02:16:12;11.57;;;7.87;;
15295;SDS011;7749;49.964;7.890;2023-12-20T02:18:40;9.03;;;6.20;;
15295;SDS011;7749;49.964;7.890;2023-12-20T02:21:11;6.37;;;3.87;;
15295;SDS011;7749;49.964;7.890;2023-12-20T02:23:38;4.07;;;3.30;;
15295;SDS011;7749;49.964;7.890;2023-12-20T02:26:05;4.57;;;3.00;;
15295;SDS011;7749;49.964;7.890;2023-12-20T02:28:33;2.20;;;1.83;;
15295;SDS011;7749;49.964;7.890;2023-12-20T02:31:02;5.67;;;2.63;;
15295;SDS011;7749;49.964;7.890;2023-12-20T02:33:29;3.13;;;2.83;;
15295;SDS011;7749;49.964;7.890;2023-12-20T02:35:57;2.10;;;1.90;;
15295;SDS011;7749;49.964;7.890;2023-12-20T02:38:24;1.00;;;1.00;;
15295;SDS011;7749;49.964;7.890;2023-12-20T02:40:52;1.67;;;1.57;;
15295;SDS011;7749;49.964;7.890;2023-12-20T02:43:19;1.40;;;1.13;;
15295;SDS011;7749;49.964;7.890;2023-12-20T02:45:47;1.87;;;1.47;;
15295;SDS011;7749;49.964;7.890;2023-12-20T02:48:14;1.80;;;1.37;;
15295;SDS011;7749;49.964;7.890;2023-12-20T02:50:42;2.33;;;1.83;;
15295;SDS011;7749;49.964;7.890;2023-12-20T02:53:09;1.60;;;1.37;;
15295;SDS011;7749;49.964;7.890;2023-12-20T02:55:37;2.63;;;1.50;;
15295;SDS011;7749;49.964;7.890;2023-12-20T02:58:04;1.40;;;1.30;;
15295;SDS011;7749;49.964;7.890;2023-12-20T03:00:32;1.10;;;1.00;;
15295;SDS011;7749;49.964;7.890;2023-12-20T03:02:59;1.27;;;1.13;;
15295;SDS011;7749;49.964;7.890;2023-12-20T03:05:26;1.40;;;1.10;;
15295;SDS011;7749;49.964;7.890;2023-12-20T03:07:54;1.10;;;0.97;;
15295;SDS011;7749;49.964;7.890;2023-12-20T03:10:21;1.10;;;1.00;;
15295;SDS011;7749;49.964;7.890;2023-12-20T03:12:53;1.73;;;0.97;;
15295;SDS011;7749;49.964;7.890;2023-12-20T03:15:20;1.20;;;1.10;;
15295;SDS011;7749;49.964;7.890;2023-12-20T03:17:48;1.23;;;1.10;;
15295;SDS011;7749;49.964;7.890;2023-12-20T03:20:16;1.17;;;1.10;;
15295;SDS011;7749;49.964;7.890;2023-12-20T03:22:43;2.07;;;1.33;;
15295;SDS011;7749;49.964;7.890;2023-12-20T03:25:11;1.50;;;1.40;;
15295;SDS011;7749;49.964;7.890;2023-12-20T03:27:38;1.30;;;1.20;;
15295;SDS011;7749;49.964;7.890;2023-12-20T03:30:06;1.90;;;1.40;;
15295;SDS011;7749;49.964;7.890;2023-12-20T03:32:33;1.70;;;1.60;;
15295;SDS011;7749;49.964;7.890;2023-12-20T03:35:01;1.10;;;1.10;;
15295;SDS011;7749;49.964;7.890;2023-12-20T03:37:29;1.37;;;1.27;;
15295;SDS011;7749;49.964;7.890;2023-12-20T03:39:56;2.10;;;1.70;;
15295;SDS011;7749;49.964;7.890;2023-12-20T03:42:24;1.73;;;1.40;;
15295;SDS011;7749;49.964;7.890;2023-12-20T03:44:51;1.30;;;1.20;;
15295;SDS011;7749;49.964;7.890;2023-12-20T03:47:18;1.10;;;1.00;;
15295;SDS011;7749;49.964;7.890;2023-12-20T03:49:46;1.30;;;1.20;;
15295;SDS011;7749;49.964;7.890;2023-12-20T03:52:13;1.10;;;1.10;;
15295;SDS011;7749;49.964;7.890;2023-12-20T03:54:40;1.00;;;1.00;;
15295;SDS011;7749;49.964;7.890;2023-12-20T03:57:11;0.93;;;0.93;;
15295;SDS011;7749;49.964;7.890;2023-12-20T03:59:38;0.90;;;0.90;;
15295;SDS011;7749;49.964;7.890;2023-12-20T04:02:06;2.43;;;1.23;;
15295;SDS011;7749;49.964;7.890;2023-12-20T04:04:33;0.90;;;0.90;;
15295;SDS011;7749;49.964;7.890;2023-12-20T04:07:01;1.07;;;1.00;;
15295;SDS011;7749;49.964;7.890;2023-12-20T04:09:28;1.50;;;1.00;;
15295;SDS011;7749;49.964;7.890;2023-12-20T04:11:56;1.67;;;1.13;;
15295;SDS011;7749;49.964;7.890;2023-12-20T04:14:23;1.50;;;1.20;;
15295;SDS011;7749;49.964;7.890;2023-12-20T04:16:52;1.10;;;1.00;;
15295;SDS011;7749;49.964;7.890;2023-12-20T04:19:20;1.47;;;1.20;;
15295;SDS011;7749;49.964;7.890;2023-12-20T04:21:48;2.80;;;2.10;;
15295;SDS011;7749;49.964;7.890;2023-12-20T04:24:16;1.60;;;1.33;;
15295;SDS011;7749;49.964;7.890;2023-12-20T04:26:43;2.03;;;1.47;;
15295;SDS011;7749;49.964;7.890;2023-12-20T04:29:10;4.20;;;1.50;;
15295;SDS011;7749;49.964;7.890;2023-12-20T04:31:38;2.33;;;1.57;;
15295;SDS011;7749;49.964;7.890;2023-12-20T04:34:05;1.60;;;1.37;;
15295;SDS011;7749;49.964;7.890;2023-12-20T04:36:33;3.30;;;1.60;;
15295;SDS011;7749;49.964;7.890;2023-12-20T04:39:00;3.87;;;1.60;;
15295;SDS011;7749;49.964;7.890;2023-12-20T04:41:28;3.10;;;1.40;;
15295;SDS011;7749;49.964;7.890;2023-12-20T04:43:55;4.20;;;1.63;;
15295;SDS011;7749;49.964;7.890;2023-12-20T04:46:23;4.03;;;1.67;;
15295;SDS011;7749;49.964;7.890;2023-12-20T04:48:50;5.20;;;1.90;;
15295;SDS011;7749;49.964;7.890;2023-12-20T04:51:18;3.57;;;1.70;;
15295;SDS011;7749;49.964;7.890;2023-12-20T04:53:45;6.67;;;1.57;;
15295;SDS011;7749;49.964;7.890;2023-12-20T04:56:13;3.83;;;1.53;;
15295;SDS011;7749;49.964;7.890;2023-12-20T04:58:41;1.93;;;1.13;;
15295;SDS011;7749;49.964;7.890;2023-12-20T05:01:09;4.13;;;1.80;;
15295;SDS011;7749;49.964;7.890;2023-12-20T05:03:37;4.60;;;1.73;;
15295;SDS011;7749;49.964;7.890;2023-12-20T05:06:04;6.03;;;1.60;;
15295;SDS011;7749;49.964;7.890;2023-12-20T05:08:32;3.70;;;1.30;;
15295;SDS011;7749;49.964;7.890;2023-12-20T05:10:59;5.07;;;1.60;;
15295;SDS011;7749;49.964;7.890;2023-12-20T05:13:27;4.27;;;1.80;;
15295;SDS011;7749;49.964;7.890;2023-12-20T05:16:07;6.57;;;1.90;;
15295;SDS011;7749;49.964;7.890;2023-12-20T05:18:36;4.80;;;1.70;;
15295;SDS011;7749;49.964;7.890;2023-12-20T05:21:03;3.77;;;1.80;;
15295;SDS011;7749;49.964;7.890;2023-12-20T05:23:31;3.30;;;1.70;;
15295;SDS011;7749;49.964;7.890;2023-12-20T05:25:58;3.57;;;1.73;;
15295;SDS011;7749;49.964;7.890;2023-12-20T05:28:26;3.70;;;1.80;;
15295;SDS011;7749;49.964;7.890;2023-12-20T05:30:53;7.23;;;2.00;;
15295;SDS011;7749;49.964;7.890;2023-12-20T05:33:21;4.53;;;2.10;;
15295;SDS011;7749;49.964;7.890;2023-12-20T05:35:49;4.20;;;1.80;;
15295;SDS011;7749;49.964;7.890;2023-12-20T05:38:16;3.17;;;1.70;;
15295;SDS011;7749;49.964;7.890;2023-12-20T05:40:44;5.67;;;1.80;;
15295;SDS011;7749;49.964;7.890;2023-12-20T05:43:11;4.77;;;1.87;;
15295;SDS011;7749;49.964;7.890;2023-12-20T05:45:38;5.37;;;2.10;;
15295;SDS011;7749;49.964;7.890;2023-12-20T05:48:06;5.13;;;1.93;;
15295;SDS011;7749;49.964;7.890;2023-12-20T05:50:34;4.27;;;2.30;;
15295;SDS011;7749;49.964;7.890;2023-12-20T05:53:01;5.20;;;1.87;;
15295;SDS011;7749;49.964;7.890;2023-12-20T05:55:29;4.97;;;1.90;;
15295;SDS011;7749;49.964;7.890;2023-12-20T05:57:56;5.83;;;2.20;;
15295;SDS011;7749;49.964;7.890;2023-12-20T06:00:24;8.30;;;2.37;;
15295;SDS011;7749;49.964;7.890;2023-12-20T06:02:52;4.67;;;2.10;;
15295;SDS011;7749;49.964;7.890;2023-12-20T06:05:19;3.37;;;1.80;;
15295;SDS011;7749;49.964;7.890;2023-12-20T06:07:47;5.87;;;2.20;;
15295;SDS011;7749;49.964;7.890;2023-12-20T06:10:17;5.27;;;2.00;;
15295;SDS011;7749;49.964;7.890;2023-12-20T06:12:44;5.07;;;2.30;;
15295;SDS011;7749;49.964;7.890;2023-12-20T06:15:14;4.27;;;2.10;;
15295;SDS011;7749;49.964;7.890;2023-12-20T06:17:41;4.60;;;2.00;;
15295;SDS011;7749;49.964;7.890;2023-12-20T06:20:10;4.27;;;2.53;;
15295;SDS011;7749;49.964;7.890;2023-12-20T06:22:38;6.93;;;2.67;;
15295;SDS011;7749;49.964;7.890;2023-12-20T06:25:05;4.93;;;2.73;;
15295;SDS011;7749;49.964;7.890;2023-12-20T06:27:33;4.97;;;2.63;;
15295;SDS011;7749;49.964;7.890;2023-12-20T06:30:01;5.50;;;2.63;;
15295;SDS011;7749;49.964;7.890;2023-12-20T06:32:28;5.57;;;2.60;;
15295;SDS011;7749;49.964;7.890;2023-12-20T06:34:56;4.10;;;2.17;;
15295;SDS011;7749;49.964;7.890;2023-12-20T06:37:24;5.43;;;2.20;;
15295;SDS011;7749;49.964;7.890;2023-12-20T06:39:51;4.20;;;2.17;;
15295;SDS011;7749;49.964;7.890;2023-12-20T06:42:19;4.73;;;1.90;;
15295;SDS011;7749;49.964;7.890;2023-12-20T06:44:46;6.63;;;2.20;;
15295;SDS011;7749;49.964;7.890;2023-12-20T06:47:14;3.77;;;2.30;;
15295;SDS011;7749;49.964;7.890;2023-12-20T06:49:41;7.03;;;2.43;;
15295;SDS011;7749;49.964;7.890;2023-12-20T06:52:09;4.20;;;2.30;;
15295;SDS011;7749;49.964;7.890;2023-12-20T06:54:36;7.57;;;2.87;;
15295;SDS011;7749;49.964;7.890;2023-12-20T06:57:04;6.07;;;2.40;;
15295;SDS011;7749;49.964;7.890;2023-12-20T06:59:31;2.87;;;1.77;;
15295;SDS011;7749;49.964;7.890;2023-12-20T07:01:59;4.10;;;1.70;;
15295;SDS011;7749;49.964;7.890;2023-12-20T07:04:26;3.93;;;1.60;;
15295;SDS011;7749;49.964;7.890;2023-12-20T07:06:54;5.23;;;2.10;;
15295;SDS011;7749;49.964;7.890;2023-12-20T07:09:24;8.30;;;2.60;;
15295;SDS011;7749;49.964;7.890;2023-12-20T07:11:52;4.90;;;2.27;;
15295;SDS011;7749;49.964;7.890;2023-12-20T07:14:20;5.13;;;2.97;;
15295;SDS011;7749;49.964;7.890;2023-12-20T07:16:47;8.27;;;2.20;;
15295;SDS011;7749;49.964;7.890;2023-12-20T07:19:15;5.33;;;2.73;;
15295;SDS011;7749;49.964;7.890;2023-12-20T07:21:43;6.47;;;2.00;;
15295;SDS011;7749;49.964;7.890;2023-12-20T07:24:10;5.80;;;2.40;;
15295;SDS011;7749;49.964;7.890;2023-12-20T07:26:38;4.83;;;2.30;;
15295;SDS011;7749;49.964;7.890;2023-12-20T07:29:06;4.97;;;2.10;;
15295;SDS011;7749;49.964;7.890;2023-12-20T07:31:33;5.43;;;2.43;;
15295;SDS011;7749;49.964;7.890;2023-12-20T07:34:01;6.80;;;2.60;;
15295;SDS011;7749;49.964;7.890;2023-12-20T07:36:29;8.47;;;2.77;;
15295;SDS011;7749;49.964;7.890;2023-12-20T07:38:56;9.37;;;2.53;;
15295;SDS011;7749;49.964;7.890;2023-12-20T07:41:24;7.37;;;2.50;;
15295;SDS011;7749;49.964;7.890;2023-12-20T07:43:52;8.33;;;3.00;;
15295;SDS011;7749;49.964;7.890;2023-12-20T07:46:20;8.00;;;3.23;;
15295;SDS011;7749;49.964;7.890;2023-12-20T07:48:51;6.70;;;2.93;;
15295;SDS011;7749;49.964;7.890;2023-12-20T07:51:19;7.70;;;2.93;;
15295;SDS011;7749;49.964;7.890;2023-12-20T07:53:48;10.70;;;4.00;;
15295;SDS011;7749;49.964;7.890;2023-12-20T07:56:19;14.10;;;4.47;;
15295;SDS011;7749;49.964;7.890;2023-12-20T07:58:47;8.73;;;3.73;;
15295;SDS011;7749;49.964;7.890;2023-12-20T08:01:19;8.33;;;3.53;;
15295;SDS011;7749;49.964;7.890;2023-12-20T08:03:48;7.97;;;3.40;;
15295;SDS011;7749;49.964;7.890;2023-12-20T08:06:17;8.50;;;3.00;;
15295;SDS011;7749;49.964;7.890;2023-12-20T08:08:45;6.53;;;3.03;;
15295;SDS011;7749;49.964;7.890;2023-12-20T08:11:21;9.43;;;2.90;;
15295;SDS011;7749;49.964;7.890;2023-12-20T08:13:48;5.63;;;2.77;;
15295;SDS011;7749;49.964;7.890;2023-12-20T08:16:16;8.53;;;2.67;;
15295;SDS011;7749;49.964;7.890;2023-12-20T08:18:45;7.57;;;2.30;;
15295;SDS011;7749;49.964;7.890;2023-12-20T08:21:14;7.73;;;2.40;;
15295;SDS011;7749;49.964;7.890;2023-12-20T08:23:41;6.77;;;2.60;;
15295;SDS011;7749;49.964;7.890;2023-12-20T08:26:09;4.40;;;2.70;;
15295;SDS011;7749;49.964;7.890;2023-12-20T08:28:36;6.87;;;3.20;;
15295;SDS011;7749;49.964;7.890;2023-12-20T08:31:04;6.37;;;2.60;;
15295;SDS011;7749;49.964;7.890;2023-12-20T08:33:32;6.73;;;2.90;;
15295;SDS011;7749;49.964;7.890;2023-12-20T08:36:00;4.60;;;1.90;;
15295;SDS011;7749;49.964;7.890;2023-12-20T08:38:27;6.87;;;2.37;;
15295;SDS011;7749;49.964;7.890;2023-12-20T08:40:54;6.17;;;2.53;;
15295;SDS011;7749;49.964;7.890;2023-12-20T08:43:22;6.77;;;2.77;;
15295;SDS011;7749;49.964;7.890;2023-12-20T08:45:50;10.37;;;2.73;;
15295;SDS011;7749;49.964;7.890;2023-12-20T08:48:17;6.30;;;2.50;;
15295;SDS011;7749;49.964;7.890;2023-12-20T08:50:45;9.27;;;2.57;;
15295;SDS011;7749;49.964;7.890;2023-12-20T08:53:14;5.97;;;2.60;;
15295;SDS011;7749;49.964;7.890;2023-12-20T08:55:42;5.17;;;2.33;;
15295;SDS011;7749;49.964;7.890;2023-12-20T08:58:10;8.00;;;2.27;;
15295;SDS011;7749;49.964;7.890;2023-12-20T09:00:37;9.30;;;2.73;;
15295;SDS011;7749;49.964;7.890;2023-12-20T09:03:05;10.67;;;3.43;;
15295;SDS011;7749;49.964;7.890;2023-12-20T09:05:33;7.13;;;2.80;;
15295;SDS011;7749;49.964;7.890;2023-12-20T09:08:00;4.87;;;2.33;;
15295;SDS011;7749;49.964;7.890;2023-12-20T09:10:28;5.07;;;2.73;;
15295;SDS011;7749;49.964;7.890;2023-12-20T09:13:00;5.03;;;2.33;;
15295;SDS011;7749;49.964;7.890;2023-12-20T09:15:27;7.77;;;3.03;;
15295;SDS011;7749;49.964;7.890;2023-12-20T09:18:01;6.27;;;2.50;;
15295;SDS011;7749;49.964;7.890;2023-12-20T09:20:30;7.67;;;2.77;;
15295;SDS011;7749;49.964;7.890;2023-12-20T09:22:59;5.73;;;2.67;;
15295;SDS011;7749;49.964;7.890;2023-12-20T09:25:27;6.67;;;2.77;;
15295;SDS011;7749;49.964;7.890;2023-12-20T09:27:55;8.23;;;2.90;;
15295;SDS011;7749;49.964;7.890;2023-12-20T09:30:23;7.10;;;2.73;;
15295;SDS011;7749;49.964;7.890;2023-12-20T09:32:54;5.93;;;2.40;;
15295;SDS011;7749;49.964;7.890;2023-12-20T09:35:22;9.07;;;2.80;;
15295;SDS011;7749;49.964;7.890;2023-12-20T09:37:50;8.00;;;3.03;;
15295;SDS011;7749;49.964;7.890;2023-12-20T09:40:18;8.10;;;2.97;;
15295;SDS011;7749;49.964;7.890;2023-12-20T09:45:14;7.80;;;3.37;;
15295;SDS011;7749;49.964;7.890;2023-12-20T09:47:43;7.03;;;2.43;;
15295;SDS011;7749;49.964;7.890;2023-12-20T09:50:12;5.20;;;2.73;;
15295;SDS011;7749;49.964;7.890;2023-12-20T09:52:40;7.40;;;2.77;;
15295;SDS011;7749;49.964;7.890;2023-12-20T09:55:10;6.47;;;2.27;;
15295;SDS011;7749;49.964;7.890;2023-12-20T09:57:38;7.90;;;2.60;;
15295;SDS011;7749;49.964;7.890;2023-12-20T10:00:06;6.37;;;2.17;;
15295;SDS011;7749;49.964;7.890;2023-12-20T10:02:35;6.70;;;2.67;;
15295;SDS011;7749;49.964;7.890;2023-12-20T10:05:10;6.57;;;2.50;;
15295;SDS011;7749;49.964;7.890;2023-12-20T10:07:46;8.17;;;2.60;;
15295;SDS011;7749;49.964;7.890;2023-12-20T10:10:14;9.50;;;3.20;;
15295;SDS011;7749;49.964;7.890;2023-12-20T10:13:00;7.00;;;2.77;;
15295;SDS011;7749;49.964;7.890;2023-12-20T10:15:35;6.63;;;3.00;;
15295;SDS011;7749;49.964;7.890;2023-12-20T10:18:04;5.73;;;2.27;;
15295;SDS011;7749;49.964;7.890;2023-12-20T10:20:32;8.37;;;3.87;;
15295;SDS011;7749;49.964;7.890;2023-12-20T10:23:00;9.57;;;2.57;;
15295;SDS011;7749;49.964;7.890;2023-12-20T10:25:28;6.53;;;2.03;;
15295;SDS011;7749;49.964;7.890;2023-12-20T10:28:17;9.03;;;1.90;;
15295;SDS011;7749;49.964;7.890;2023-12-20T10:30:46;5.07;;;2.20;;
15295;SDS011;7749;49.964;7.890;2023-12-20T10:33:19;9.10;;;2.60;;
15295;SDS011;7749;49.964;7.890;2023-12-20T10:35:54;5.53;;;2.40;;
15295;SDS011;7749;49.964;7.890;2023-12-20T10:38:22;10.57;;;2.90;;
15295;SDS011;7749;49.964;7.890;2023-12-20T10:40:52;6.07;;;2.53;;
15295;SDS011;7749;49.964;7.890;2023-12-20T10:43:26;10.03;;;2.70;;
15295;SDS011;7749;49.964;7.890;2023-12-20T10:45:57;5.07;;;2.43;;
15295;SDS011;7749;49.964;7.890;2023-12-20T10:48:26;5.73;;;1.77;;
15295;SDS011;7749;49.964;7.890;2023-12-20T10:50:57;7.17;;;2.20;;
15295;SDS011;7749;49.964;7.890;2023-12-20T10:53:25;7.13;;;2.30;;
15295;SDS011;7749;49.964;7.890;2023-12-20T10:55:54;3.47;;;1.70;;
15295;SDS011;7749;49.964;7.890;2023-12-20T10:58:24;7.10;;;3.17;;
15295;SDS011;7749;49.964;7.890;2023-12-20T11:01:00;6.30;;;2.10;;
15295;SDS011;7749;49.964;7.890;2023-12-20T11:03:32;6.73;;;2.37;;
15295;SDS011;7749;49.964;7.890;2023-12-20T11:06:05;7.37;;;2.97;;
15295;SDS011;7749;49.964;7.890;2023-12-20T11:08:46;5.23;;;2.57;;
15295;SDS011;7749;49.964;7.890;2023-12-20T11:13:59;7.50;;;3.10;;
15295;SDS011;7749;49.964;7.890;2023-12-20T11:16:33;5.13;;;2.20;;
15295;SDS011;7749;49.964;7.890;2023-12-20T11:19:20;4.37;;;2.43;;
15295;SDS011;7749;49.964;7.890;2023-12-20T11:21:48;4.83;;;2.17;;
15295;SDS011;7749;49.964;7.890;2023-12-20T11:24:15;8.83;;;2.83;;
15295;SDS011;7749;49.964;7.890;2023-12-20T11:26:47;9.30;;;3.43;;
15295;SDS011;7749;49.964;7.890;2023-12-20T11:29:32;10.93;;;3.37;;
15295;SDS011;7749;49.964;7.890;2023-12-20T11:32:04;4.73;;;2.37;;
15295;SDS011;7749;49.964;7.890;2023-12-20T11:34:53;5.00;;;2.10;;
15295;SDS011;7749;49.964;7.890;2023-12-20T11:37:30;7.07;;;2.47;;
15295;SDS011;7749;49.964;7.890;2023-12-20T11:40:02;5.20;;;2.70;;
15295;SDS011;7749;49.964;7.890;2023-12-20T11:42:39;10.10;;;2.93;;
15295;SDS011;7749;49.964;7.890;2023-12-20T11:45:08;8.13;;;3.47;;
15295;SDS011;7749;49.964;7.890;2023-12-20T11:47:36;7.50;;;3.37;;
15295;SDS011;7749;49.964;7.890;2023-12-20T11:50:04;9.83;;;3.50;;
15295;SDS011;7749;49.964;7.890;2023-12-20T11:52:33;5.63;;;2.80;;
15295;SDS011;7749;49.964;7.890;2023-12-20T11:55:00;4.80;;;2.07;;
15295;SDS011;7749;49.964;7.890;2023-12-20T11:57:28;4.93;;;2.10;;
15295;SDS011;7749;49.964;7.890;2023-12-20T12:00:09;6.13;;;1.80;;
15295;SDS011;7749;49.964;7.890;2023-12-20T12:02:37;9.03;;;2.90;;
15295;SDS011;7749;49.964;7.890;2023-12-20T12:05:04;5.30;;;2.57;;
15295;SDS011;7749;49.964;7.890;2023-12-20T12:07:33;5.10;;;1.97;;
15295;SDS011;7749;49.964;7.890;2023-12-20T12:10:02;5.80;;;2.30;;
15295;SDS011;7749;49.964;7.890;2023-12-20T12:12:30;5.13;;;2.00;;
15295;SDS011;7749;49.964;7.890;2023-12-20T12:14:59;6.97;;;2.00;;
15295;SDS011;7749;49.964;7.890;2023-12-20T12:17:26;6.77;;;2.33;;
15295;SDS011;7749;49.964;7.890;2023-12-20T12:20:02;5.37;;;2.30;;
15295;SDS011;7749;49.964;7.890;2023-12-20T12:22:32;4.90;;;2.20;;
15295;SDS011;7749;49.964;7.890;2023-12-20T12:25:09;7.07;;;2.43;;
15295;SDS011;7749;49.964;7.890;2023-12-20T12:27:41;4.70;;;2.10;;
15295;SDS011;7749;49.964;7.890;2023-12-20T12:30:10;5.77;;;2.47;;
15295;SDS011;7749;49.964;7.890;2023-12-20T12:32:39;6.57;;;2.37;;
15295;SDS011;7749;49.964;7.890;2023-12-20T12:35:08;9.10;;;2.60;;
15295;SDS011;7749;49.964;7.890;2023-12-20T12:37:37;6.23;;;2.33;;
15295;SDS011;7749;49.964;7.890;2023-12-20T12:40:12;9.30;;;2.30;;
15295;SDS011;7749;49.964;7.890;2023-12-20T12:42:41;6.53;;;1.87;;
15295;SDS011;7749;49.964;7.890;2023-12-20T12:45:10;7.53;;;2.60;;
15295;SDS011;7749;49.964;7.890;2023-12-20T12:47:40;8.23;;;2.60;;
15295;SDS011;7749;49.964;7.890;2023-12-20T12:50:08;6.60;;;2.60;;
15295;SDS011;7749;49.964;7.890;2023-12-20T12:52:36;4.73;;;2.03;;
15295;SDS011;7749;49.964;7.890;2023-12-20T12:55:04;4.53;;;1.63;;
15295;SDS011;7749;49.964;7.890;2023-12-20T12:57:32;6.30;;;1.80;;
15295;SDS011;7749;49.964;7.890;2023-12-20T13:00:00;4.73;;;1.67;;
15295;SDS011;7749;49.964;7.890;2023-12-20T13:02:29;5.97;;;2.40;;
15295;SDS011;7749;49.964;7.890;2023-12-20T13:04:57;4.50;;;1.73;;
15295;SDS011;7749;49.964;7.890;2023-12-20T13:07:26;5.00;;;1.40;;
15295;SDS011;7749;49.964;7.890;2023-12-20T13:09:54;5.43;;;1.70;;
15295;SDS011;7749;49.964;7.890;2023-12-20T13:12:21;5.20;;;1.70;;
15295;SDS011;7749;49.964;7.890;2023-12-20T13:14:48;4.87;;;2.20;;
15295;SDS011;7749;49.964;7.890;2023-12-20T13:17:16;4.03;;;2.10;;
15295;SDS011;7749;49.964;7.890;2023-12-20T13:19:43;4.87;;;1.70;;
15295;SDS011;7749;49.964;7.890;2023-12-20T13:22:11;5.17;;;1.53;;
15295;SDS011;7749;49.964;7.890;2023-12-20T13:24:38;6.87;;;2.00;;
15295;SDS011;7749;49.964;7.890;2023-12-20T13:27:06;5.67;;;1.90;;
15295;SDS011;7749;49.964;7.890;2023-12-20T13:29:33;4.87;;;1.83;;
15295;SDS011;7749;49.964;7.890;2023-12-20T13:32:04;5.10;;;1.80;;
15295;SDS011;7749;49.964;7.890;2023-12-20T13:34:32;3.77;;;1.57;;
15295;SDS011;7749;49.964;7.890;2023-12-20T13:37:00;6.47;;;2.00;;
15295;SDS011;7749;49.964;7.890;2023-12-20T13:39:27;6.63;;;1.97;;
15295;SDS011;7749;49.964;7.890;2023-12-20T13:41:54;3.63;;;1.30;;
15295;SDS011;7749;49.964;7.890;2023-12-20T13:44:25;4.27;;;1.57;;
15295;SDS011;7749;49.964;7.890;2023-12-20T13:46:53;4.80;;;1.43;;
15295;SDS011;7749;49.964;7.890;2023-12-20T13:49:20;5.27;;;1.97;;
15295;SDS011;7749;49.964;7.890;2023-12-20T13:51:53;4.70;;;1.70;;
15295;SDS011;7749;49.964;7.890;2023-12-20T13:54:21;4.53;;;1.60;;
15295;SDS011;7749;49.964;7.890;2023-12-20T13:56:49;3.43;;;1.20;;
15295;SDS011;7749;49.964;7.890;2023-12-20T13:59:34;2.77;;;1.40;;
15295;SDS011;7749;49.964;7.890;2023-12-20T14:02:02;4.30;;;1.63;;
15295;SDS011;7749;49.964;7.890;2023-12-20T14:04:30;3.37;;;1.30;;
15295;SDS011;7749;49.964;7.890;2023-12-20T14:07:09;4.40;;;1.73;;
15295;SDS011;7749;49.964;7.890;2023-12-20T14:09:39;4.40;;;1.50;;
15295;SDS011;7749;49.964;7.890;2023-12-20T14:12:13;3.50;;;1.67;;
15295;SDS011;7749;49.964;7.890;2023-12-20T14:14:41;1.97;;;1.20;;
15295;SDS011;7749;49.964;7.890;2023-12-20T14:17:08;3.57;;;1.40;;
15295;SDS011;7749;49.964;7.890;2023-12-20T14:19:36;2.83;;;1.20;;
15295;SDS011;7749;49.964;7.890;2023-12-20T14:22:03;3.00;;;1.30;;
15295;SDS011;7749;49.964;7.890;2023-12-20T14:24:31;4.20;;;1.97;;
15295;SDS011;7749;49.964;7.890;2023-12-20T14:26:59;2.47;;;1.60;;
15295;SDS011;7749;49.964;7.890;2023-12-20T14:29:26;4.50;;;1.77;;
15295;SDS011;7749;49.964;7.890;2023-12-20T14:31:54;4.80;;;1.73;;
15295;SDS011;7749;49.964;7.890;2023-12-20T14:34:21;3.77;;;1.33;;
15295;SDS011;7749;49.964;7.890;2023-12-20T14:36:51;6.70;;;1.90;;
15295;SDS011;7749;49.964;7.890;2023-12-20T14:39:19;2.43;;;1.27;;
15295;SDS011;7749;49.964;7.890;2023-12-20T14:41:47;4.80;;;1.40;;
15295;SDS011;7749;49.964;7.890;2023-12-20T14:44:15;7.00;;;1.80;;
15295;SDS011;7749;49.964;7.890;2023-12-20T14:46:43;4.50;;;1.30;;
15295;SDS011;7749;49.964;7.890;2023-12-20T14:49:10;5.37;;;2.50;;
15295;SDS011;7749;49.964;7.890;2023-12-20T14:51:38;6.10;;;1.50;;
15295;SDS011;7749;49.964;7.890;2023-12-20T14:54:06;4.63;;;1.60;;
15295;SDS011;7749;49.964;7.890;2023-12-20T14:56:37;7.77;;;2.20;;
15295;SDS011;7749;49.964;7.890;2023-12-20T14:59:04;4.90;;;1.80;;
15295;SDS011;7749;49.964;7.890;2023-12-20T15:01:32;5.53;;;2.00;;
15295;SDS011;7749;49.964;7.890;2023-12-20T15:03:59;4.40;;;1.80;;
15295;SDS011;7749;49.964;7.890;2023-12-20T15:06:28;4.93;;;1.60;;
15295;SDS011;7749;49.964;7.890;2023-12-20T15:08:55;5.97;;;2.00;;
15295;SDS011;7749;49.964;7.890;2023-12-20T15:11:22;6.73;;;1.63;;
15295;SDS011;7749;49.964;7.890;2023-12-20T15:13:50;4.07;;;1.70;;